CMP319 SMJP-MPTO
Flight info
| Callsign | CMP319 |
|---|---|
| Flight time | N/A |
| Altitude | 36000 |
| Route | GEBON UG443 TIM UP549 ISLAG UP650 ESEDA MEVID1 |
| Aircraft | B737/M-SDE3FGHIRWY/S |
Departure
| Time | 2026-04-27 02:08 |
|---|---|
| Airport | Johan Adolf Pengel International Airport (SMJP) |
Arrival
| Time | N/A |
|---|---|
| Airport | Tocumen International Airport (MPTO) |
| Time | Latitude | Longitude | Altitude | Speed | Heading |
|---|---|---|---|---|---|
| 2026-04-27 01:38 | 5.45526 | -55.19964 | 59 ft | 0 kts | 1° |
| 2026-04-27 02:00 | 5.45516 | -55.19964 | 59 ft | 4 kts | 2° |
| 2026-04-27 02:00 | 5.45489 | -55.19966 | 52 ft | 4 kts | 4° |
| 2026-04-27 02:01 | 5.45465 | -55.19967 | 53 ft | 4 kts | 342° |
| 2026-04-27 02:01 | 5.45449 | -55.19952 | 55 ft | 4 kts | 285° |
| 2026-04-27 02:01 | 5.45445 | -55.19926 | 58 ft | 4 kts | 269° |
| 2026-04-27 02:01 | 5.45446 | -55.19903 | 52 ft | 1 kts | 269° |
| 2026-04-27 02:04 | 5.45446 | -55.19908 | 60 ft | 2 kts | 269° |
| 2026-04-27 02:04 | 5.45445 | -55.19945 | 53 ft | 9 kts | 269° |
| 2026-04-27 02:04 | 5.45444 | -55.20027 | 59 ft | 14 kts | 269° |
| 2026-04-27 02:05 | 5.45444 | -55.20131 | 60 ft | 13 kts | 271° |
| 2026-04-27 02:05 | 5.45445 | -55.20212 | 59 ft | 11 kts | 270° |
| 2026-04-27 02:05 | 5.45443 | -55.20287 | 58 ft | 11 kts | 267° |
| 2026-04-27 02:05 | 5.45406 | -55.20346 | 54 ft | 11 kts | 205° |
| 2026-04-27 02:06 | 5.45354 | -55.20352 | 56 ft | 6 kts | 182° |
| 2026-04-27 02:06 | 5.45311 | -55.20344 | 56 ft | 6 kts | 167° |
| 2026-04-27 02:06 | 5.45279 | -55.20321 | 54 ft | 6 kts | 112° |
| 2026-04-27 02:06 | 5.45276 | -55.20295 | 54 ft | 3 kts | 89° |
| 2026-04-27 02:07 | 5.45278 | -55.20186 | 56 ft | 43 kts | 89° |
| 2026-04-27 02:07 | 5.45282 | -55.19652 | 60 ft | 110 kts | 90° |
| 2026-04-27 02:07 | 5.45289 | -55.18680 | 57 ft | 166 kts | 90° |
| 2026-04-27 02:07 | 5.45263 | -55.17471 | 626 ft | 168 kts | 90° |
| 2026-04-27 02:08 | 5.45229 | -55.16332 | 1536 ft | 159 kts | 89° |
| 2026-04-27 02:08 | 5.45198 | -55.15232 | 2358 ft | 159 kts | 89° |
| 2026-04-27 02:08 | 5.45174 | -55.14102 | 3078 ft | 163 kts | 89° |
| 2026-04-27 02:08 | 5.45289 | -55.12920 | 3536 ft | 186 kts | 67° |
| 2026-04-27 02:09 | 5.46276 | -55.11985 | 3754 ft | 219 kts | 24° |
| 2026-04-27 02:09 | 5.47897 | -55.11855 | 4057 ft | 245 kts | 352° |
| 2026-04-27 02:09 | 5.49526 | -55.12556 | 4322 ft | 274 kts | 323° |
| 2026-04-27 02:09 | 5.50662 | -55.14111 | 5075 ft | 282 kts | 291° |
| 2026-04-27 02:10 | 5.51196 | -55.16082 | 5552 ft | 307 kts | 281° |
| 2026-04-27 02:10 | 5.51592 | -55.18287 | 5911 ft | 330 kts | 280° |
| 2026-04-27 02:10 | 5.52017 | -55.20580 | 6632 ft | 338 kts | 282° |
| 2026-04-27 02:10 | 5.52515 | -55.22914 | 7401 ft | 343 kts | 283° |
| 2026-04-27 02:11 | 5.53083 | -55.25252 | 8209 ft | 347 kts | 285° |
| 2026-04-27 02:11 | 5.53712 | -55.27610 | 9001 ft | 352 kts | 286° |
| 2026-04-27 02:11 | 5.54387 | -55.29990 | 9798 ft | 356 kts | 287° |
| 2026-04-27 02:11 | 5.55097 | -55.32395 | 10487 ft | 361 kts | 288° |
| 2026-04-27 02:12 | 5.55822 | -55.34792 | 11228 ft | 364 kts | 288° |
| 2026-04-27 02:12 | 5.56569 | -55.37232 | 11981 ft | 367 kts | 288° |
| 2026-04-27 02:12 | 5.57329 | -55.39695 | 12716 ft | 371 kts | 288° |
| 2026-04-27 02:12 | 5.58099 | -55.42180 | 13461 ft | 375 kts | 288° |
| 2026-04-27 02:13 | 5.58625 | -55.43872 | 13934 ft | 378 kts | 288° |
| 2026-04-27 02:13 | 5.59403 | -55.46377 | 14566 ft | 381 kts | 288° |
| 2026-04-27 02:13 | 5.60197 | -55.48932 | 15191 ft | 386 kts | 288° |
| 2026-04-27 02:13 | 5.61002 | -55.51521 | 15819 ft | 390 kts | 288° |
| 2026-04-27 02:14 | 5.61814 | -55.54136 | 16440 ft | 395 kts | 288° |
| 2026-04-27 02:14 | 5.62637 | -55.56784 | 17053 ft | 399 kts | 288° |
| 2026-04-27 02:14 | 5.63470 | -55.59467 | 17670 ft | 404 kts | 288° |
| 2026-04-27 02:14 | 5.64310 | -55.62172 | 18276 ft | 408 kts | 288° |
| 2026-04-27 02:15 | 5.65157 | -55.64900 | 18791 ft | 412 kts | 288° |
| 2026-04-27 02:15 | 5.66015 | -55.67664 | 19293 ft | 415 kts | 288° |
| 2026-04-27 02:15 | 5.66879 | -55.70448 | 19798 ft | 419 kts | 288° |
| 2026-04-27 02:15 | 5.67749 | -55.73254 | 20296 ft | 423 kts | 288° |
| 2026-04-27 02:16 | 5.68626 | -55.76080 | 20780 ft | 426 kts | 288° |
| 2026-04-27 02:16 | 5.69512 | -55.78938 | 21251 ft | 430 kts | 288° |
| 2026-04-27 02:16 | 5.70405 | -55.81817 | 21704 ft | 434 kts | 287° |
| 2026-04-27 02:16 | 5.71306 | -55.84724 | 22151 ft | 438 kts | 287° |
| 2026-04-27 02:17 | 5.72204 | -55.87621 | 22595 ft | 441 kts | 287° |
| 2026-04-27 02:17 | 5.73119 | -55.90574 | 23041 ft | 444 kts | 287° |
| 2026-04-27 02:17 | 5.74041 | -55.93551 | 23473 ft | 448 kts | 287° |
| 2026-04-27 02:17 | 5.74970 | -55.96548 | 23826 ft | 451 kts | 287° |
| 2026-04-27 02:18 | 5.75905 | -55.99567 | 24194 ft | 453 kts | 287° |
| 2026-04-27 02:18 | 5.76842 | -56.02594 | 24580 ft | 455 kts | 287° |
| 2026-04-27 02:18 | 5.77784 | -56.05636 | 24951 ft | 457 kts | 287° |
| 2026-04-27 02:18 | 5.78731 | -56.08694 | 25313 ft | 459 kts | 287° |
| 2026-04-27 02:19 | 5.79681 | -56.11766 | 25670 ft | 462 kts | 287° |
| 2026-04-27 02:19 | 5.80636 | -56.14852 | 26013 ft | 464 kts | 287° |
| 2026-04-27 02:19 | 5.81596 | -56.17954 | 26355 ft | 466 kts | 287° |
| 2026-04-27 02:19 | 5.82561 | -56.21075 | 26695 ft | 468 kts | 287° |
| 2026-04-27 02:20 | 5.83529 | -56.24206 | 27032 ft | 470 kts | 287° |
| 2026-04-27 02:20 | 5.84502 | -56.27352 | 27365 ft | 473 kts | 287° |
| 2026-04-27 02:20 | 5.85479 | -56.30513 | 27693 ft | 475 kts | 287° |
| 2026-04-27 02:20 | 5.86460 | -56.33687 | 28003 ft | 477 kts | 287° |
| 2026-04-27 02:21 | 5.87435 | -56.36844 | 28301 ft | 479 kts | 287° |
| 2026-04-27 02:21 | 5.88424 | -56.40047 | 28606 ft | 481 kts | 287° |
| 2026-04-27 02:21 | 5.89418 | -56.43265 | 28915 ft | 483 kts | 287° |
| 2026-04-27 02:21 | 5.90417 | -56.46500 | 29211 ft | 485 kts | 287° |
| 2026-04-27 02:22 | 5.91419 | -56.49747 | 29496 ft | 487 kts | 287° |
| 2026-04-27 02:22 | 5.92427 | -56.53013 | 29775 ft | 489 kts | 287° |
| 2026-04-27 02:22 | 5.93436 | -56.56284 | 30047 ft | 491 kts | 287° |
| 2026-04-27 02:22 | 5.94448 | -56.59566 | 30282 ft | 493 kts | 287° |
| 2026-04-27 02:23 | 5.95465 | -56.62861 | 30527 ft | 494 kts | 287° |
| 2026-04-27 02:23 | 5.96486 | -56.66173 | 30776 ft | 495 kts | 287° |
| 2026-04-27 02:23 | 5.97505 | -56.69479 | 31016 ft | 496 kts | 287° |
| 2026-04-27 02:23 | 5.98525 | -56.72789 | 31264 ft | 497 kts | 287° |
| 2026-04-27 02:24 | 5.99546 | -56.76103 | 31569 ft | 496 kts | 287° |
| 2026-04-27 02:24 | 6.00564 | -56.79408 | 31946 ft | 494 kts | 287° |
| 2026-04-27 02:24 | 6.01564 | -56.82654 | 32339 ft | 491 kts | 287° |
| 2026-04-27 02:24 | 6.02573 | -56.85932 | 32715 ft | 490 kts | 287° |
| 2026-04-27 02:25 | 6.03580 | -56.89202 | 33042 ft | 489 kts | 287° |
| 2026-04-27 02:25 | 6.04586 | -56.92473 | 33389 ft | 489 kts | 287° |
| 2026-04-27 02:25 | 6.05587 | -56.95729 | 33782 ft | 487 kts | 287° |
| 2026-04-27 02:25 | 6.06584 | -56.98970 | 34166 ft | 485 kts | 287° |
| 2026-04-27 02:26 | 6.07598 | -57.02193 | 34498 ft | 483 kts | 288° |
| 2026-04-27 02:26 | 6.08666 | -57.05393 | 34783 ft | 482 kts | 289° |
| 2026-04-27 02:26 | 6.09750 | -57.08544 | 35052 ft | 481 kts | 290° |
| 2026-04-27 02:26 | 6.10850 | -57.11717 | 35347 ft | 480 kts | 290° |
| 2026-04-27 02:27 | 6.11948 | -57.14890 | 35647 ft | 479 kts | 290° |
| 2026-04-27 02:27 | 6.13033 | -57.18043 | 35922 ft | 478 kts | 290° |
| 2026-04-27 02:27 | 6.14114 | -57.21203 | 36180 ft | 477 kts | 290° |
| 2026-04-27 02:27 | 6.15188 | -57.24355 | 36453 ft | 476 kts | 290° |
| 2026-04-27 02:28 | 6.16256 | -57.27496 | 36711 ft | 475 kts | 290° |
| 2026-04-27 02:28 | 6.17321 | -57.30634 | 36974 ft | 474 kts | 290° |
| 2026-04-27 02:28 | 6.18375 | -57.33739 | 37213 ft | 473 kts | 290° |
| 2026-04-27 02:28 | 6.19435 | -57.36863 | 37447 ft | 472 kts | 290° |
| 2026-04-27 02:29 | 6.20495 | -57.39987 | 37684 ft | 471 kts | 290° |
| 2026-04-27 02:29 | 6.21549 | -57.43095 | 37954 ft | 469 kts | 290° |
| 2026-04-27 02:29 | 6.23671 | -57.49346 | 37986 ft | 472 kts | 290° |
| 2026-04-27 02:30 | 6.25784 | -57.55580 | 37977 ft | 469 kts | 290° |
| 2026-04-27 02:30 | 6.27868 | -57.61727 | 37984 ft | 466 kts | 290° |
| 2026-04-27 02:31 | 6.29951 | -57.67875 | 37981 ft | 463 kts | 290° |
| 2026-04-27 02:31 | 6.32030 | -57.74011 | 37983 ft | 463 kts | 290° |
| 2026-04-27 02:32 | 6.34103 | -57.80136 | 37986 ft | 463 kts | 290° |
| 2026-04-27 02:32 | 6.36171 | -57.86246 | 37981 ft | 465 kts | 290° |
| 2026-04-27 02:33 | 6.38257 | -57.92413 | 37986 ft | 467 kts | 290° |
| 2026-04-27 02:33 | 6.40355 | -57.98618 | 37984 ft | 469 kts | 289° |
| 2026-04-27 02:34 | 6.42458 | -58.04839 | 37982 ft | 470 kts | 289° |
| 2026-04-27 02:34 | 6.44563 | -58.11072 | 37980 ft | 471 kts | 289° |
| 2026-04-27 02:35 | 6.46673 | -58.17322 | 38024 ft | 472 kts | 289° |
| 2026-04-27 02:35 | 6.48773 | -58.23547 | 38020 ft | 472 kts | 289° |
| 2026-04-27 02:36 | 6.50051 | -58.29997 | 38031 ft | 471 kts | 275° |
| 2026-04-27 02:36 | 6.50494 | -58.36578 | 38020 ft | 471 kts | 274° |
| 2026-04-27 02:37 | 6.50926 | -58.43146 | 38005 ft | 470 kts | 274° |
| 2026-04-27 02:37 | 6.51409 | -58.49701 | 38001 ft | 470 kts | 275° |
| 2026-04-27 02:38 | 6.51912 | -58.56253 | 37992 ft | 469 kts | 275° |
| 2026-04-27 02:38 | 6.52410 | -58.62752 | 37986 ft | 469 kts | 275° |
| 2026-04-27 02:39 | 6.52907 | -58.69297 | 37986 ft | 469 kts | 275° |
| 2026-04-27 02:39 | 6.53404 | -58.75852 | 37986 ft | 469 kts | 275° |
| 2026-04-27 02:40 | 6.53918 | -58.82397 | 37989 ft | 469 kts | 275° |
| 2026-04-27 02:40 | 6.54438 | -58.88940 | 37988 ft | 470 kts | 275° |
| 2026-04-27 02:41 | 6.54952 | -58.95458 | 37992 ft | 470 kts | 275° |
| 2026-04-27 02:41 | 6.55469 | -59.02014 | 37992 ft | 470 kts | 275° |
| 2026-04-27 02:42 | 6.55985 | -59.08574 | 37995 ft | 470 kts | 275° |
| 2026-04-27 02:42 | 6.56500 | -59.15128 | 37990 ft | 470 kts | 275° |
| 2026-04-27 02:43 | 6.57010 | -59.21641 | 37992 ft | 470 kts | 275° |
| 2026-04-27 02:43 | 6.57522 | -59.28186 | 37996 ft | 470 kts | 275° |
| 2026-04-27 02:44 | 6.58034 | -59.34737 | 37998 ft | 469 kts | 275° |
| 2026-04-27 02:44 | 6.58544 | -59.41281 | 37997 ft | 469 kts | 274° |
| 2026-04-27 02:45 | 6.59053 | -59.47822 | 37999 ft | 469 kts | 274° |
| 2026-04-27 02:45 | 6.59563 | -59.54354 | 37997 ft | 468 kts | 275° |
| 2026-04-27 02:46 | 6.60077 | -59.60884 | 37997 ft | 468 kts | 274° |
| 2026-04-27 02:46 | 6.60591 | -59.67411 | 37994 ft | 468 kts | 274° |
| 2026-04-27 02:47 | 6.61103 | -59.73933 | 37997 ft | 467 kts | 274° |
| 2026-04-27 02:47 | 6.61613 | -59.80446 | 37996 ft | 467 kts | 274° |
| 2026-04-27 02:48 | 6.62119 | -59.86917 | 38003 ft | 467 kts | 274° |
| 2026-04-27 02:48 | 6.62627 | -59.93431 | 38000 ft | 467 kts | 274° |
| 2026-04-27 02:49 | 6.63134 | -59.99941 | 37998 ft | 466 kts | 274° |
| 2026-04-27 02:49 | 6.63639 | -60.06428 | 38002 ft | 466 kts | 274° |
| 2026-04-27 02:50 | 6.64144 | -60.12936 | 38002 ft | 466 kts | 274° |
| 2026-04-27 02:50 | 6.64648 | -60.19437 | 38005 ft | 466 kts | 274° |
| 2026-04-27 02:51 | 6.65147 | -60.25939 | 38004 ft | 466 kts | 274° |
| 2026-04-27 02:51 | 6.65632 | -60.32450 | 38007 ft | 466 kts | 274° |
| 2026-04-27 02:52 | 6.66114 | -60.38960 | 38010 ft | 467 kts | 274° |
| 2026-04-27 02:52 | 6.66597 | -60.45479 | 38006 ft | 467 kts | 274° |
| 2026-04-27 02:53 | 6.67078 | -60.51955 | 38007 ft | 467 kts | 274° |
| 2026-04-27 02:53 | 6.67561 | -60.58476 | 38008 ft | 467 kts | 274° |
| 2026-04-27 02:54 | 6.68043 | -60.65003 | 38010 ft | 468 kts | 274° |
| 2026-04-27 02:54 | 6.68525 | -60.71534 | 38007 ft | 468 kts | 274° |
| 2026-04-27 02:55 | 6.69006 | -60.78062 | 38015 ft | 468 kts | 273° |
| 2026-04-27 02:55 | 6.69486 | -60.84588 | 38007 ft | 468 kts | 273° |
| 2026-04-27 02:56 | 6.69965 | -60.91119 | 38004 ft | 467 kts | 273° |
| 2026-04-27 02:56 | 6.70442 | -60.97640 | 38004 ft | 467 kts | 273° |
| 2026-04-27 02:57 | 6.70931 | -61.04110 | 38009 ft | 466 kts | 275° |
| 2026-04-27 02:57 | 6.72008 | -61.10552 | 37994 ft | 466 kts | 281° |
| 2026-04-27 02:58 | 6.73315 | -61.16953 | 37994 ft | 466 kts | 281° |
| 2026-04-27 02:58 | 6.74595 | -61.23353 | 37991 ft | 467 kts | 280° |
| 2026-04-27 02:59 | 6.75623 | -61.28682 | 37992 ft | 467 kts | 280° |
| 2026-04-27 02:59 | 6.76841 | -61.35095 | 37989 ft | 467 kts | 280° |
| 2026-04-27 03:00 | 6.78058 | -61.41520 | 37990 ft | 467 kts | 280° |
| 2026-04-27 03:00 | 6.79274 | -61.47936 | 37992 ft | 467 kts | 280° |
| 2026-04-27 03:01 | 6.80490 | -61.54354 | 37990 ft | 467 kts | 280° |
| 2026-04-27 03:01 | 6.81700 | -61.60743 | 37990 ft | 467 kts | 280° |
| 2026-04-27 03:02 | 6.82918 | -61.67176 | 37990 ft | 467 kts | 280° |
| 2026-04-27 03:02 | 6.84133 | -61.73604 | 37991 ft | 467 kts | 280° |
| 2026-04-27 03:03 | 6.85952 | -61.83231 | 37986 ft | 467 kts | 280° |
| 2026-04-27 03:04 | 6.87157 | -61.89613 | 37997 ft | 467 kts | 280° |
| 2026-04-27 03:04 | 6.88367 | -61.96030 | 37993 ft | 467 kts | 280° |
| 2026-04-27 03:05 | 6.89578 | -62.02451 | 37988 ft | 466 kts | 280° |
| 2026-04-27 03:05 | 6.90786 | -62.08869 | 37988 ft | 466 kts | 280° |
| 2026-04-27 03:06 | 6.91993 | -62.15279 | 37989 ft | 465 kts | 280° |
| 2026-04-27 03:06 | 6.93191 | -62.21654 | 37989 ft | 465 kts | 280° |
| 2026-04-27 03:07 | 6.94395 | -62.28049 | 37990 ft | 465 kts | 280° |
| 2026-04-27 03:07 | 6.95600 | -62.34447 | 37989 ft | 465 kts | 280° |
| 2026-04-27 03:08 | 6.96799 | -62.40816 | 37994 ft | 465 kts | 280° |
| 2026-04-27 03:08 | 6.98000 | -62.47206 | 37990 ft | 465 kts | 280° |
| 2026-04-27 03:09 | 6.99201 | -62.53602 | 37992 ft | 464 kts | 280° |
| 2026-04-27 03:09 | 7.00401 | -62.59995 | 37993 ft | 464 kts | 280° |
| 2026-04-27 03:10 | 7.01599 | -62.66389 | 37989 ft | 465 kts | 280° |
| 2026-04-27 03:10 | 7.02792 | -62.72756 | 37995 ft | 465 kts | 280° |
| 2026-04-27 03:11 | 7.03990 | -62.79154 | 37992 ft | 465 kts | 280° |
| 2026-04-27 03:11 | 7.05188 | -62.85554 | 37985 ft | 465 kts | 279° |
| 2026-04-27 03:12 | 7.06384 | -62.91955 | 37989 ft | 465 kts | 279° |
| 2026-04-27 03:12 | 7.07582 | -62.98366 | 37988 ft | 465 kts | 279° |
| 2026-04-27 03:13 | 7.08769 | -63.04731 | 37991 ft | 466 kts | 279° |
| 2026-04-27 03:13 | 7.09965 | -63.11141 | 37993 ft | 466 kts | 279° |
| 2026-04-27 03:14 | 7.11160 | -63.17557 | 37983 ft | 467 kts | 279° |
| 2026-04-27 03:14 | 7.12359 | -63.23999 | 37995 ft | 469 kts | 279° |
| 2026-04-27 03:15 | 7.13563 | -63.30472 | 38000 ft | 471 kts | 279° |
| 2026-04-27 03:15 | 7.14771 | -63.36978 | 37990 ft | 473 kts | 279° |
| 2026-04-27 03:16 | 7.15982 | -63.43509 | 37990 ft | 474 kts | 279° |
| 2026-04-27 03:16 | 7.17195 | -63.50050 | 37981 ft | 476 kts | 279° |
| 2026-04-27 03:17 | 7.18402 | -63.56564 | 37991 ft | 476 kts | 279° |
| 2026-04-27 03:17 | 7.19620 | -63.63139 | 37985 ft | 477 kts | 279° |
| 2026-04-27 03:18 | 7.20835 | -63.69708 | 37986 ft | 477 kts | 279° |
| 2026-04-27 03:18 | 7.22049 | -63.76280 | 37984 ft | 476 kts | 279° |
| 2026-04-27 03:19 | 7.23260 | -63.82839 | 37983 ft | 476 kts | 279° |
| 2026-04-27 03:19 | 7.24461 | -63.89346 | 37988 ft | 475 kts | 279° |
| 2026-04-27 03:20 | 7.25666 | -63.95886 | 37981 ft | 474 kts | 279° |
| 2026-04-27 03:20 | 7.26868 | -64.02411 | 37986 ft | 473 kts | 279° |
| 2026-04-27 03:21 | 7.28068 | -64.08930 | 37988 ft | 472 kts | 279° |
| 2026-04-27 03:21 | 7.29262 | -64.15426 | 37977 ft | 471 kts | 279° |
| 2026-04-27 03:22 | 7.30444 | -64.21868 | 37979 ft | 469 kts | 279° |
| 2026-04-27 03:22 | 7.31621 | -64.28329 | 37979 ft | 468 kts | 279° |
| 2026-04-27 03:23 | 7.32792 | -64.34771 | 37975 ft | 467 kts | 279° |
| 2026-04-27 03:23 | 7.33961 | -64.41205 | 37983 ft | 466 kts | 279° |
| 2026-04-27 03:24 | 7.35127 | -64.47623 | 37979 ft | 465 kts | 279° |
| 2026-04-27 03:24 | 7.36291 | -64.54037 | 37980 ft | 465 kts | 279° |
| 2026-04-27 03:25 | 7.37448 | -64.60413 | 37982 ft | 465 kts | 279° |
| 2026-04-27 03:25 | 7.38618 | -64.66826 | 37978 ft | 465 kts | 279° |
| 2026-04-27 03:26 | 7.39790 | -64.73238 | 37979 ft | 466 kts | 279° |
| 2026-04-27 03:26 | 7.40963 | -64.79666 | 37977 ft | 466 kts | 279° |
| 2026-04-27 03:27 | 7.42134 | -64.86095 | 37979 ft | 467 kts | 279° |
| 2026-04-27 03:27 | 7.43307 | -64.92537 | 37982 ft | 467 kts | 279° |
| 2026-04-27 03:28 | 7.44478 | -64.98977 | 37974 ft | 468 kts | 279° |
| 2026-04-27 03:28 | 7.45650 | -65.05428 | 37973 ft | 468 kts | 278° |
| 2026-04-27 03:29 | 7.46821 | -65.11878 | 37979 ft | 468 kts | 278° |
| 2026-04-27 03:29 | 7.47986 | -65.18299 | 37973 ft | 468 kts | 278° |
| 2026-04-27 03:30 | 7.49157 | -65.24761 | 37981 ft | 468 kts | 278° |
| 2026-04-27 03:30 | 7.50328 | -65.31228 | 37975 ft | 468 kts | 278° |
| 2026-04-27 03:31 | 7.51498 | -65.37698 | 37983 ft | 468 kts | 278° |
| 2026-04-27 03:31 | 7.52666 | -65.44161 | 37983 ft | 469 kts | 278° |
| 2026-04-27 03:32 | 7.53827 | -65.50585 | 37977 ft | 469 kts | 278° |
| 2026-04-27 03:32 | 7.54994 | -65.57053 | 37973 ft | 469 kts | 278° |
| 2026-04-27 03:33 | 7.56160 | -65.63518 | 37973 ft | 468 kts | 278° |
| 2026-04-27 03:33 | 7.57323 | -65.69978 | 37969 ft | 467 kts | 278° |
| 2026-04-27 03:34 | 7.58483 | -65.76421 | 37970 ft | 466 kts | 278° |
| 2026-04-27 03:34 | 7.59632 | -65.82809 | 37966 ft | 465 kts | 278° |
| 2026-04-27 03:35 | 7.60782 | -65.89214 | 37961 ft | 464 kts | 278° |
| 2026-04-27 03:35 | 7.61930 | -65.95604 | 37964 ft | 463 kts | 278° |
| 2026-04-27 03:36 | 7.63074 | -66.01986 | 37969 ft | 462 kts | 278° |
| 2026-04-27 03:36 | 7.64216 | -66.08357 | 37965 ft | 462 kts | 278° |
| 2026-04-27 03:37 | 7.65358 | -66.14737 | 37969 ft | 462 kts | 278° |
| 2026-04-27 03:37 | 7.66499 | -66.21119 | 37968 ft | 463 kts | 278° |
| 2026-04-27 03:38 | 7.67641 | -66.27508 | 37966 ft | 463 kts | 278° |
| 2026-04-27 03:38 | 7.68789 | -66.33905 | 37966 ft | 464 kts | 278° |
| 2026-04-27 03:39 | 7.69958 | -66.40281 | 37965 ft | 464 kts | 278° |
| 2026-04-27 03:39 | 7.71120 | -66.46679 | 37965 ft | 464 kts | 278° |
| 2026-04-27 03:40 | 7.72256 | -66.53091 | 37967 ft | 465 kts | 278° |
| 2026-04-27 03:40 | 7.73389 | -66.59520 | 37971 ft | 465 kts | 278° |
| 2026-04-27 03:41 | 7.74524 | -66.65945 | 37965 ft | 466 kts | 278° |
| 2026-04-27 03:41 | 7.75661 | -66.72376 | 37963 ft | 466 kts | 278° |
| 2026-04-27 03:42 | 7.76797 | -66.78809 | 37967 ft | 466 kts | 278° |
| 2026-04-27 03:42 | 7.77926 | -66.85206 | 37963 ft | 466 kts | 278° |
| 2026-04-27 03:43 | 7.79061 | -66.91642 | 37967 ft | 466 kts | 278° |
| 2026-04-27 03:43 | 7.80196 | -66.98089 | 37963 ft | 466 kts | 278° |
| 2026-04-27 03:44 | 7.81330 | -67.04533 | 37969 ft | 466 kts | 278° |
| 2026-04-27 03:44 | 7.82463 | -67.10973 | 37962 ft | 466 kts | 278° |
| 2026-04-27 03:45 | 7.83584 | -67.17358 | 37959 ft | 465 kts | 278° |
| 2026-04-27 03:45 | 7.84711 | -67.23778 | 37964 ft | 465 kts | 278° |
| 2026-04-27 03:46 | 7.85847 | -67.30199 | 37965 ft | 464 kts | 278° |
| 2026-04-27 03:46 | 7.86997 | -67.36605 | 37960 ft | 463 kts | 278° |
| 2026-04-27 03:47 | 7.87947 | -67.41919 | 37964 ft | 463 kts | 278° |
| 2026-04-27 03:47 | 7.89358 | -67.48254 | 37969 ft | 463 kts | 283° |
| 2026-04-27 03:48 | 7.91083 | -67.54517 | 37966 ft | 463 kts | 283° |
| 2026-04-27 03:48 | 7.92808 | -67.60775 | 37969 ft | 462 kts | 283° |
| 2026-04-27 03:49 | 7.94493 | -67.67035 | 37961 ft | 462 kts | 283° |
| 2026-04-27 03:49 | 7.96164 | -67.73301 | 37969 ft | 461 kts | 283° |
| 2026-04-27 03:50 | 7.97819 | -67.79508 | 37966 ft | 461 kts | 283° |
| 2026-04-27 03:50 | 7.99485 | -67.85760 | 37967 ft | 461 kts | 283° |
| 2026-04-27 03:51 | 8.01153 | -67.92017 | 37961 ft | 461 kts | 283° |
| 2026-04-27 03:51 | 8.02818 | -67.98270 | 37967 ft | 461 kts | 283° |
| 2026-04-27 03:52 | 8.04472 | -68.04489 | 37968 ft | 461 kts | 283° |
| 2026-04-27 03:52 | 8.06133 | -68.10741 | 37965 ft | 462 kts | 282° |
| 2026-04-27 03:53 | 8.07796 | -68.17006 | 37969 ft | 462 kts | 282° |
| 2026-04-27 03:53 | 8.09456 | -68.23273 | 38001 ft | 461 kts | 282° |
| 2026-04-27 03:54 | 8.11081 | -68.29474 | 38093 ft | 459 kts | 282° |
| 2026-04-27 03:54 | 8.12690 | -68.35718 | 38038 ft | 460 kts | 282° |
| 2026-04-27 03:55 | 8.14267 | -68.41997 | 37990 ft | 462 kts | 281° |
| 2026-04-27 03:55 | 8.15798 | -68.48283 | 38072 ft | 460 kts | 281° |
| 2026-04-27 03:56 | 8.17276 | -68.54550 | 38103 ft | 459 kts | 281° |
| 2026-04-27 03:56 | 8.18714 | -68.60853 | 37984 ft | 462 kts | 280° |
| 2026-04-27 03:57 | 8.20127 | -68.67184 | 37991 ft | 462 kts | 280° |
| 2026-04-27 03:57 | 8.22056 | -68.73351 | 36988 ft | 477 kts | 307° |
| 2026-04-27 03:57 | 8.24541 | -68.75286 | 30128 ft | 407 kts | 341° |
| 2026-04-27 03:58 | 8.25980 | -68.75378 | 14774 ft | 119 kts | 147° |
| 2026-04-27 03:58 | 8.22931 | -68.75273 | 1877 ft | 679 kts | 186° |
| 2026-04-27 03:58 | 8.19446 | -68.76350 | 6152 ft | 288 kts | 240° |
| 2026-04-27 03:58 | 8.20048 | -68.78387 | 12003 ft | 377 kts | 304° |
| 2026-04-27 03:59 | 8.21064 | -68.80097 | 4807 ft | 143 kts | 218° |
| 2026-04-27 03:59 | 8.20241 | -68.80414 | 239 ft | 24 kts | 320° |
| 2026-04-27 03:59 | 8.20234 | -68.80428 | 226 ft | 0 kts | 277° |
| 2026-04-27 04:00 | 8.20234 | -68.80429 | 222 ft | 0 kts | 277° |
| 2026-04-27 04:01 | 8.20234 | -68.80430 | 222 ft | 0 kts | 277° |
| 2026-04-27 04:02 | 8.20234 | -68.80431 | 225 ft | 0 kts | 277° |
| 2026-04-27 04:04 | 8.20235 | -68.80432 | 225 ft | 0 kts | 276° |
| 2026-04-27 04:05 | 8.20235 | -68.80433 | 225 ft | 0 kts | 276° |
| 2026-04-27 04:06 | 8.20235 | -68.80434 | 225 ft | 0 kts | 276° |
| 2026-04-27 04:07 | 8.20235 | -68.80435 | 225 ft | 0 kts | 276° |
| 2026-04-27 04:08 | 8.20235 | -68.80436 | 225 ft | 0 kts | 276° |
| 2026-04-27 04:09 | 8.20235 | -68.80437 | 225 ft | 0 kts | 276° |
| 2026-04-27 04:11 | 8.20235 | -68.80438 | 225 ft | 0 kts | 276° |
| 2026-04-27 04:12 | 8.20235 | -68.80439 | 225 ft | 0 kts | 276° |
| 2026-04-27 04:13 | 8.20235 | -68.80440 | 225 ft | 0 kts | 276° |
| 2026-04-27 04:14 | 8.20235 | -68.80441 | 225 ft | 0 kts | 276° |
| 2026-04-27 04:14 | 8.20236 | -68.80441 | 225 ft | 0 kts | 276° |
| 2026-04-27 04:15 | 8.20236 | -68.80442 | 225 ft | 0 kts | 276° |
| 2026-04-27 04:16 | 8.20236 | -68.80443 | 225 ft | 0 kts | 276° |
| 2026-04-27 04:17 | 8.20236 | -68.80444 | 225 ft | 0 kts | 276° |
| 2026-04-27 04:18 | 8.20236 | -68.80445 | 226 ft | 0 kts | 276° |
| 2026-04-27 04:19 | 8.20236 | -68.80446 | 228 ft | 0 kts | 276° |
| 2026-04-27 04:21 | 8.20236 | -68.80447 | 228 ft | 0 kts | 276° |
| 2026-04-27 04:22 | 8.20236 | -68.80448 | 228 ft | 0 kts | 276° |
| 2026-04-27 04:23 | 8.20236 | -68.80449 | 226 ft | 0 kts | 276° |
| 2026-04-27 04:24 | 8.20236 | -68.80450 | 226 ft | 0 kts | 276° |
| 2026-04-27 04:24 | 8.20237 | -68.80450 | 226 ft | 0 kts | 276° |
| 2026-04-27 04:25 | 8.20237 | -68.80451 | 226 ft | 0 kts | 276° |
| 2026-04-27 04:36 | 8.20237 | -68.80450 | 226 ft | 0 kts | 277° |
| 2026-04-27 04:39 | 8.20238 | -68.80450 | 226 ft | 0 kts | 278° |
| 2026-04-27 04:51 | 8.20238 | -68.80449 | 226 ft | 0 kts | 279° |
| 2026-04-27 04:54 | 8.20239 | -68.80449 | 226 ft | 0 kts | 279° |